createdAt,value
2018-08-12T00:00:30.042Z,1.93
2018-08-12T00:02:59.633Z,2.00
2018-08-12T00:05:28.012Z,2.00
2018-08-12T00:07:56.476Z,2.00
2018-08-12T00:10:25.796Z,1.90
2018-08-12T00:12:54.244Z,2.00
2018-08-12T00:15:23.255Z,2.47
2018-08-12T00:17:51.763Z,2.03
2018-08-12T00:20:21.589Z,2.00
2018-08-12T00:22:50.128Z,2.30
2018-08-12T00:25:19.907Z,1.97
2018-08-12T00:27:48.908Z,1.90
2018-08-12T00:30:17.975Z,2.17
2018-08-12T00:32:46.321Z,2.00
2018-08-12T00:35:16.446Z,2.30
2018-08-12T00:37:44.998Z,2.23
2018-08-12T00:40:14.690Z,2.10
2018-08-12T00:42:43.170Z,2.23
2018-08-12T00:45:14.113Z,2.50
2018-08-12T00:47:42.753Z,2.37
2018-08-12T00:50:12.196Z,2.17
2018-08-12T00:52:40.619Z,2.33
2018-08-12T00:55:11.268Z,2.20
2018-08-12T00:57:39.767Z,2.20
2018-08-12T01:00:11.711Z,2.60
2018-08-12T01:02:40.422Z,2.37
2018-08-12T01:05:10.772Z,2.30
2018-08-12T01:07:39.672Z,2.27
2018-08-12T01:10:08.754Z,2.63
2018-08-12T01:12:37.435Z,2.47
2018-08-12T01:15:13.675Z,3.03
2018-08-12T01:17:43.076Z,2.73
2018-08-12T01:20:13.683Z,2.33
2018-08-12T01:22:42.104Z,2.70
2018-08-12T01:25:11.422Z,3.27
2018-08-12T01:27:40.310Z,2.33
2018-08-12T01:30:11.171Z,2.60
2018-08-12T01:32:40.342Z,2.67
2018-08-12T01:35:10.080Z,3.13
2018-08-12T01:37:38.578Z,2.77
2018-08-12T01:40:09.039Z,3.27
2018-08-12T01:42:37.840Z,2.63
2018-08-12T01:45:06.468Z,2.93
2018-08-12T01:47:34.955Z,3.30
2018-08-12T01:50:03.449Z,3.50
2018-08-12T01:52:31.813Z,2.67
2018-08-12T01:55:00.202Z,2.70
2018-08-12T01:57:28.670Z,2.97
2018-08-12T01:59:57.063Z,2.87
2018-08-12T02:02:25.472Z,2.83
2018-08-12T02:04:53.828Z,2.30
2018-08-12T02:07:22.382Z,2.83
2018-08-12T02:09:50.776Z,2.40
2018-08-12T02:12:19.206Z,2.97
2018-08-12T02:14:47.631Z,2.53
2018-08-12T02:17:16.023Z,2.70
2018-08-12T02:19:44.423Z,2.90
2018-08-12T02:22:12.925Z,2.80
2018-08-12T02:24:41.314Z,2.57
2018-08-12T02:27:09.718Z,3.20
2018-08-12T02:29:38.137Z,3.20
2018-08-12T02:32:06.762Z,2.73
2018-08-12T02:34:35.136Z,2.63
2018-08-12T02:37:03.949Z,2.67
2018-08-12T02:39:32.313Z,2.50
2018-08-12T02:42:00.733Z,2.43
2018-08-12T02:44:29.107Z,2.77
2018-08-12T02:46:57.489Z,3.10
2018-08-12T02:49:25.835Z,2.73
2018-08-12T02:51:54.339Z,2.50
2018-08-12T02:54:22.723Z,3.03
2018-08-12T02:56:51.076Z,2.97
2018-08-12T02:59:19.504Z,2.80
2018-08-12T03:01:47.918Z,2.50
2018-08-12T03:04:16.336Z,2.90
2018-08-12T03:06:44.828Z,3.30
2018-08-12T03:09:13.618Z,2.77
2018-08-12T03:11:42.351Z,2.80
2018-08-12T03:14:11.083Z,2.50
2018-08-12T03:16:39.767Z,2.97
2018-08-12T03:19:08.163Z,2.33
2018-08-12T03:21:36.536Z,2.77
2018-08-12T03:24:04.947Z,2.60
2018-08-12T03:26:33.354Z,2.77
2018-08-12T03:29:01.680Z,2.80
2018-08-12T03:31:29.981Z,3.07
2018-08-12T03:33:58.355Z,3.37
2018-08-12T03:36:26.739Z,2.70
2018-08-12T03:38:55.069Z,2.60
2018-08-12T03:41:23.459Z,2.87
2018-08-12T03:43:51.843Z,3.10
2018-08-12T03:46:20.156Z,3.00
2018-08-12T03:48:48.578Z,3.07
2018-08-12T03:51:16.953Z,2.87
2018-08-12T03:53:45.401Z,3.27
2018-08-12T03:56:13.711Z,2.70
2018-08-12T03:58:42.857Z,2.70
2018-08-12T04:01:11.256Z,2.90
2018-08-12T04:03:39.680Z,3.07
2018-08-12T04:06:08.179Z,2.83
2018-08-12T04:08:36.637Z,2.60
2018-08-12T04:11:05.063Z,3.20
2018-08-12T04:13:33.466Z,2.67
2018-08-12T04:16:01.819Z,3.10
2018-08-12T04:18:30.242Z,3.43
2018-08-12T04:20:58.619Z,2.97
2018-08-12T04:23:27.030Z,2.63
2018-08-12T04:25:55.476Z,2.60
2018-08-12T04:28:23.813Z,2.43
2018-08-12T04:30:52.154Z,3.20
2018-08-12T04:33:20.535Z,3.17
2018-08-12T04:35:48.898Z,2.90
2018-08-12T04:38:17.255Z,2.90
2018-08-12T04:40:45.648Z,3.00
2018-08-12T04:43:14.046Z,2.53
2018-08-12T04:45:42.385Z,3.03
2018-08-12T04:48:10.794Z,3.20
2018-08-12T04:50:39.166Z,3.30
2018-08-12T04:53:07.504Z,2.73
2018-08-12T04:55:35.878Z,3.20
2018-08-12T04:58:04.256Z,2.70
2018-08-12T05:00:32.643Z,3.30
2018-08-12T05:03:01.228Z,3.03
2018-08-12T05:05:29.642Z,2.70
2018-08-12T05:07:57.951Z,2.77
2018-08-12T05:10:26.701Z,3.20
2018-08-12T05:12:55.081Z,3.10
2018-08-12T05:15:23.499Z,3.37
2018-08-12T05:17:51.984Z,3.10
2018-08-12T05:20:20.383Z,3.00
2018-08-12T05:22:48.792Z,2.80
2018-08-12T05:25:17.470Z,2.53
2018-08-12T05:27:46.516Z,2.80
2018-08-12T05:30:15.394Z,2.90
2018-08-12T05:32:44.017Z,2.47
2018-08-12T05:35:13.625Z,3.00
2018-08-12T05:37:42.366Z,2.60
2018-08-12T05:40:13.358Z,2.77
2018-08-12T05:42:41.811Z,2.77
2018-08-12T05:45:10.852Z,2.30
2018-08-12T05:47:39.974Z,2.33
2018-08-12T05:50:10.076Z,2.63
2018-08-12T05:52:38.636Z,2.23
2018-08-12T05:55:07.770Z,2.43
2018-08-12T05:57:36.269Z,2.47
2018-08-12T06:00:05.714Z,2.30
2018-08-12T06:02:34.046Z,2.37
2018-08-12T06:05:02.811Z,1.93
2018-08-12T06:07:32.307Z,2.00
2018-08-12T06:10:00.785Z,2.17
2018-08-12T06:12:29.434Z,2.00
2018-08-12T06:14:57.893Z,1.93
2018-08-12T06:17:26.450Z,2.03
2018-08-12T06:19:55.032Z,1.87
2018-08-12T06:22:23.593Z,1.90
2018-08-12T06:24:52.274Z,1.63
2018-08-12T06:27:20.958Z,1.70
2018-08-12T06:29:49.426Z,1.60
2018-08-12T06:32:17.954Z,1.50
2018-08-12T06:34:46.300Z,1.43
2018-08-12T06:37:14.755Z,1.33
2018-08-12T06:39:43.701Z,1.40
2018-08-12T06:42:12.184Z,1.40
2018-08-12T06:44:40.638Z,1.57
2018-08-12T06:47:09.043Z,1.50
2018-08-12T06:49:37.426Z,1.60
2018-08-12T06:52:05.860Z,1.50
2018-08-12T06:54:34.200Z,1.27
2018-08-12T06:57:02.678Z,1.30
2018-08-12T06:59:31.081Z,1.37
2018-08-12T07:01:59.447Z,1.63
2018-08-12T07:04:28.295Z,1.30
2018-08-12T07:07:01.778Z,1.50
2018-08-12T07:09:30.216Z,1.63
2018-08-12T07:11:58.650Z,1.53
2018-08-12T07:14:27.065Z,1.47
2018-08-12T07:16:55.409Z,1.83
2018-08-12T07:19:23.865Z,1.60
2018-08-12T07:21:52.206Z,1.33
2018-08-12T07:24:20.639Z,1.13
2018-08-12T07:26:49.038Z,1.10
2018-08-12T07:29:17.390Z,1.17
2018-08-12T07:31:46.224Z,1.20
2018-08-12T07:34:14.819Z,1.10
2018-08-12T07:36:43.357Z,1.43
2018-08-12T07:39:11.732Z,1.50
2018-08-12T07:41:40.236Z,1.33
2018-08-12T07:44:08.732Z,1.13
2018-08-12T07:46:37.233Z,1.00
2018-08-12T07:49:05.709Z,1.10
2018-08-12T07:51:34.236Z,1.60
2018-08-12T07:54:02.698Z,1.77
2018-08-12T07:56:31.099Z,1.50
2018-08-12T07:58:59.452Z,1.20
2018-08-12T08:01:28.437Z,2.07
2018-08-12T08:03:56.883Z,1.30
2018-08-12T08:06:25.370Z,1.60
2018-08-12T08:08:53.704Z,1.40
2018-08-12T08:11:22.412Z,1.73
2018-08-12T08:13:50.856Z,1.53
2018-08-12T08:16:19.320Z,2.00
2018-08-12T08:18:48.376Z,1.60
2018-08-12T08:21:18.688Z,1.30
2018-08-12T08:23:47.083Z,1.40
2018-08-12T08:26:15.397Z,1.60
2018-08-12T08:28:43.853Z,1.57
2018-08-12T08:31:12.301Z,1.70
2018-08-12T08:33:40.666Z,1.50
2018-08-12T08:36:09.149Z,1.73
2018-08-12T08:38:37.527Z,1.57
2018-08-12T08:41:06.196Z,1.47
2018-08-12T08:43:34.739Z,1.60
2018-08-12T08:46:03.152Z,1.30
2018-08-12T08:48:31.486Z,1.10
2018-08-12T08:50:59.868Z,1.23
2018-08-12T08:53:28.314Z,1.67
2018-08-12T08:55:56.979Z,1.90
2018-08-12T08:58:27.558Z,1.90
2018-08-12T09:00:56.003Z,1.83
2018-08-12T09:03:24.469Z,2.40
2018-08-12T09:05:52.966Z,2.20
2018-08-12T09:08:21.463Z,1.93
2018-08-12T09:10:49.898Z,1.70
2018-08-12T09:13:18.322Z,2.17
2018-08-12T09:15:46.730Z,3.30
2018-08-12T09:18:15.131Z,2.63
2018-08-12T09:20:43.456Z,3.03
2018-08-12T09:23:11.830Z,3.00
2018-08-12T09:25:40.278Z,1.97
2018-08-12T09:28:08.810Z,1.83
2018-08-12T09:30:37.236Z,1.50
2018-08-12T09:33:05.739Z,1.80
2018-08-12T09:35:34.270Z,1.80
2018-08-12T09:38:02.799Z,1.53
2018-08-12T09:40:31.222Z,1.60
2018-08-12T09:42:59.621Z,1.53
2018-08-12T09:45:28.079Z,1.20
2018-08-12T09:47:56.504Z,1.10
2018-08-12T09:50:24.920Z,1.63
2018-08-12T09:52:54.112Z,1.37
2018-08-12T09:55:22.591Z,1.60
2018-08-12T09:57:51.190Z,1.47
2018-08-12T10:00:25.687Z,1.10
2018-08-12T10:02:55.164Z,1.40
2018-08-12T10:05:23.750Z,1.47
2018-08-12T10:07:52.299Z,1.57
2018-08-12T10:10:20.812Z,1.57
2018-08-12T10:12:49.294Z,1.30
2018-08-12T10:15:18.359Z,1.60
2018-08-12T10:17:49.791Z,1.00
2018-08-12T10:20:18.671Z,1.63
2018-08-12T10:22:47.109Z,1.40
2018-08-12T10:25:15.624Z,1.47
2018-08-12T10:27:44.311Z,1.20
2018-08-12T10:30:13.836Z,1.43
2018-08-12T10:32:42.241Z,1.10
2018-08-12T10:35:12.294Z,1.17
2018-08-12T10:37:41.115Z,1.07
2018-08-12T10:40:11.688Z,1.20
2018-08-12T10:42:40.121Z,0.90
2018-08-12T10:45:09.749Z,1.13
2018-08-12T10:47:38.598Z,1.10
2018-08-12T10:50:09.798Z,1.07
2018-08-12T10:52:39.454Z,1.40
2018-08-12T10:55:08.267Z,1.27
2018-08-12T10:57:36.895Z,1.27
2018-08-12T11:00:09.496Z,1.00
2018-08-12T11:02:37.925Z,1.27
2018-08-12T11:05:06.345Z,1.10
2018-08-12T11:07:34.832Z,0.78
2018-08-12T11:10:03.261Z,1.00
2018-08-12T11:12:31.793Z,1.23
2018-08-12T11:15:00.150Z,1.22
2018-08-12T11:17:28.557Z,1.00
2018-08-12T11:19:57.021Z,1.00
2018-08-12T11:22:25.484Z,1.07
2018-08-12T11:24:53.888Z,1.10
2018-08-12T11:27:22.380Z,1.40
2018-08-12T11:29:50.745Z,0.90
2018-08-12T11:32:19.148Z,1.30
2018-08-12T11:34:47.848Z,1.00
2018-08-12T11:37:16.423Z,1.30
2018-08-12T11:39:45.070Z,1.32
2018-08-12T11:42:13.701Z,1.70
2018-08-12T11:44:42.103Z,1.00
2018-08-12T11:47:11.056Z,0.90
2018-08-12T11:49:39.572Z,1.20
2018-08-12T11:52:08.004Z,1.20
2018-08-12T11:54:36.392Z,1.10
2018-08-12T11:57:05.150Z,1.15
2018-08-12T11:59:33.454Z,1.05
2018-08-12T12:02:02.256Z,1.05
2018-08-12T12:04:30.646Z,0.98
2018-08-12T12:06:59.238Z,1.32
2018-08-12T12:09:27.645Z,0.90
2018-08-12T12:11:56.002Z,1.15
2018-08-12T12:14:24.402Z,1.05
2018-08-12T12:16:52.795Z,1.15
2018-08-12T12:19:21.568Z,1.00
2018-08-12T12:21:50.182Z,0.80
2018-08-12T12:24:19.735Z,1.20
2018-08-12T12:26:49.119Z,1.20
2018-08-12T12:29:17.711Z,0.88
2018-08-12T12:31:46.250Z,1.47
2018-08-12T12:34:15.058Z,1.30
2018-08-12T12:36:43.622Z,1.17
2018-08-12T12:39:12.036Z,1.02
2018-08-12T12:41:40.646Z,1.47
2018-08-12T12:44:09.254Z,1.27
2018-08-12T12:46:37.725Z,1.15
2018-08-12T12:49:06.298Z,1.32
2018-08-12T12:51:34.726Z,1.30
2018-08-12T12:54:03.510Z,1.00
2018-08-12T12:56:33.732Z,0.90
2018-08-12T12:59:02.214Z,1.17
2018-08-12T13:01:30.832Z,1.05
2018-08-12T13:03:59.230Z,1.10
2018-08-12T13:06:27.617Z,1.42
2018-08-12T13:08:55.984Z,0.88
2018-08-12T13:11:24.406Z,1.05
2018-08-12T13:13:52.906Z,1.10
2018-08-12T13:16:21.434Z,0.90
2018-08-12T13:18:50.571Z,1.10
2018-08-12T13:21:18.983Z,1.10
2018-08-12T13:23:47.660Z,1.15
2018-08-12T13:26:16.158Z,1.10
2018-08-12T13:28:44.616Z,0.80
2018-08-12T13:31:12.932Z,0.93
2018-08-12T13:33:41.493Z,1.25
2018-08-12T13:36:09.965Z,1.40
2018-08-12T13:38:38.568Z,1.20
2018-08-12T13:41:07.221Z,1.75
2018-08-12T13:43:35.852Z,1.17
2018-08-12T13:46:04.362Z,0.93
2018-08-12T13:48:32.887Z,1.10
2018-08-12T13:51:01.472Z,1.02
2018-08-12T13:53:29.942Z,1.10
2018-08-12T13:55:58.449Z,0.85
2018-08-12T13:58:26.802Z,1.00
2018-08-12T14:00:55.696Z,1.05
2018-08-12T14:03:24.103Z,0.90
2018-08-12T14:05:52.493Z,0.95
2018-08-12T14:08:20.923Z,1.20
2018-08-12T14:10:49.504Z,1.00
2018-08-12T14:13:17.981Z,1.47
2018-08-12T14:15:46.486Z,1.30
2018-08-12T14:18:14.951Z,1.15
2018-08-12T14:20:43.323Z,1.45
2018-08-12T14:23:11.711Z,1.20
2018-08-12T14:25:40.337Z,1.47
2018-08-12T14:28:08.770Z,1.00
2018-08-12T14:30:37.178Z,1.20
2018-08-12T14:33:05.613Z,0.90
2018-08-12T14:35:40.127Z,1.35
2018-08-12T14:38:08.536Z,1.10
2018-08-12T14:40:36.966Z,1.15
2018-08-12T14:43:05.407Z,1.42
2018-08-12T14:45:35.075Z,1.17
2018-08-12T14:48:03.461Z,1.10
2018-08-12T14:50:31.802Z,1.40
2018-08-12T14:53:00.218Z,1.10
2018-08-12T14:55:28.614Z,0.90
2018-08-12T14:57:56.992Z,1.10
2018-08-12T15:00:25.474Z,1.10
2018-08-12T15:02:53.926Z,1.05
2018-08-12T15:05:22.338Z,0.88
2018-08-12T15:07:51.109Z,1.10
2018-08-12T15:10:20.130Z,0.90
2018-08-12T15:12:48.886Z,0.70
2018-08-12T15:15:18.092Z,0.90
2018-08-12T15:17:47.047Z,1.22
2018-08-12T15:20:16.270Z,2.10
2018-08-12T15:22:44.762Z,0.90
2018-08-12T15:25:17.199Z,1.30
2018-08-12T15:27:45.724Z,1.00
2018-08-12T15:30:14.128Z,0.98
2018-08-12T15:32:42.484Z,1.00
2018-08-12T15:35:10.955Z,1.10
2018-08-12T15:37:39.377Z,0.90
2018-08-12T15:40:09.943Z,1.12
2018-08-12T15:42:38.345Z,1.10
2018-08-12T15:45:09.135Z,1.20
2018-08-12T15:47:37.593Z,1.10
2018-08-12T15:50:07.060Z,0.72
2018-08-12T15:52:35.461Z,0.90
2018-08-12T15:55:03.966Z,1.35
2018-08-12T15:57:32.332Z,1.02
2018-08-12T16:00:00.752Z,1.00
2018-08-12T16:02:29.295Z,1.30
2018-08-12T16:04:57.725Z,1.10
2018-08-12T16:07:26.146Z,1.20
2018-08-12T16:09:54.597Z,1.05
2018-08-12T16:12:23.001Z,0.93
2018-08-12T16:14:51.379Z,1.02
2018-08-12T16:17:19.774Z,1.10
2018-08-12T16:19:48.138Z,1.10
2018-08-12T16:22:16.547Z,0.90
2018-08-12T16:24:44.899Z,1.02
2018-08-12T16:27:13.604Z,3.50
2018-08-12T16:29:41.974Z,2.90
2018-08-12T16:32:10.353Z,2.15
2018-08-12T16:34:39.046Z,1.35
2018-08-12T16:37:07.496Z,1.70
2018-08-12T16:39:35.920Z,1.30
2018-08-12T16:42:04.357Z,1.10
2018-08-12T16:44:32.736Z,1.00
2018-08-12T16:47:01.142Z,1.20
2018-08-12T16:49:29.638Z,0.95
2018-08-12T16:51:57.935Z,1.40
2018-08-12T16:54:26.361Z,1.00
2018-08-12T16:56:54.960Z,1.20
2018-08-12T16:59:23.287Z,0.90
2018-08-12T17:01:51.656Z,1.05
2018-08-12T17:04:20.220Z,1.10
2018-08-12T17:06:48.558Z,2.95
2018-08-12T17:09:16.963Z,1.60
2018-08-12T17:11:45.342Z,1.15
2018-08-12T17:14:13.791Z,1.42
2018-08-12T17:16:42.138Z,1.20
2018-08-12T17:19:10.553Z,1.10
2018-08-12T17:21:38.989Z,1.00
2018-08-12T17:24:07.454Z,1.07
2018-08-12T17:26:35.893Z,1.30
2018-08-12T17:29:04.350Z,1.22
2018-08-12T17:31:32.746Z,1.30
2018-08-12T17:34:01.150Z,1.10
2018-08-12T17:36:29.622Z,1.10
2018-08-12T17:38:58.002Z,1.30
2018-08-12T17:41:26.466Z,1.30
2018-08-12T17:43:54.827Z,1.00
2018-08-12T17:46:23.250Z,1.30
2018-08-12T17:48:51.628Z,1.20
2018-08-12T17:51:20.032Z,1.32
2018-08-12T17:53:48.410Z,1.40
2018-08-12T17:56:16.767Z,1.30
2018-08-12T17:58:45.141Z,1.32
2018-08-12T18:01:13.518Z,1.30
2018-08-12T18:03:41.938Z,1.35
2018-08-12T18:06:10.350Z,1.20
2018-08-12T18:08:38.740Z,1.50
2018-08-12T18:11:07.111Z,1.95
2018-08-12T18:13:35.518Z,1.82
2018-08-12T18:16:03.932Z,1.80
2018-08-12T18:18:32.457Z,1.50
2018-08-12T18:21:01.007Z,1.82
2018-08-12T18:23:29.483Z,1.95
2018-08-12T18:25:57.946Z,2.20
2018-08-12T18:28:26.363Z,2.15
2018-08-12T18:30:54.842Z,2.52
2018-08-12T18:33:23.168Z,2.50
2018-08-12T18:35:51.612Z,2.52
2018-08-12T18:38:20.046Z,2.23
2018-08-12T18:40:48.392Z,2.30
2018-08-12T18:43:16.881Z,2.30
2018-08-12T18:45:45.212Z,2.60
2018-08-12T18:48:13.663Z,2.13
2018-08-12T18:50:42.078Z,2.33
2018-08-12T18:53:10.436Z,2.53
2018-08-12T18:55:39.000Z,2.17
2018-08-12T18:58:07.421Z,2.20
2018-08-12T19:00:35.837Z,2.70
2018-08-12T19:03:04.342Z,2.47
2018-08-12T19:05:32.757Z,2.67
2018-08-12T19:08:01.153Z,2.60
2018-08-12T19:10:29.683Z,2.27
2018-08-12T19:12:58.280Z,2.33
2018-08-12T19:15:26.721Z,2.63
2018-08-12T19:17:55.171Z,2.40
2018-08-12T19:20:23.555Z,2.70
2018-08-12T19:22:51.990Z,2.50
2018-08-12T19:25:20.852Z,2.13
2018-08-12T19:27:49.534Z,2.50
2018-08-12T19:30:17.956Z,2.03
2018-08-12T19:32:46.347Z,2.70
2018-08-12T19:35:14.795Z,2.40
2018-08-12T19:37:44.139Z,2.13
2018-08-12T19:40:12.604Z,2.30
2018-08-12T19:42:41.095Z,2.20
2018-08-12T19:45:10.637Z,2.27
2018-08-12T19:47:39.096Z,2.13
2018-08-12T19:50:08.097Z,2.13
2018-08-12T19:52:37.583Z,2.03
2018-08-12T19:55:06.704Z,2.07
2018-08-12T19:57:35.083Z,2.30
2018-08-12T20:00:05.944Z,1.70
2018-08-12T20:02:34.451Z,1.87
2018-08-12T20:05:02.860Z,2.00
2018-08-12T20:07:31.486Z,2.20
2018-08-12T20:10:00.025Z,2.40
2018-08-12T20:12:28.559Z,1.93
2018-08-12T20:14:57.022Z,2.27
2018-08-12T20:17:25.524Z,2.67
2018-08-12T20:19:53.942Z,2.20
2018-08-12T20:22:22.356Z,2.50
2018-08-12T20:24:52.038Z,2.13
2018-08-12T20:27:20.536Z,1.90
2018-08-12T20:29:49.000Z,2.00
2018-08-12T20:32:17.484Z,1.93
2018-08-12T20:34:46.239Z,1.97
2018-08-12T20:37:15.098Z,2.30
2018-08-12T20:39:43.635Z,2.30
2018-08-12T20:42:12.157Z,2.13
2018-08-12T20:44:40.525Z,1.80
2018-08-12T20:47:08.940Z,2.33
2018-08-12T20:49:37.435Z,2.20
2018-08-12T20:52:06.358Z,2.20
2018-08-12T20:54:35.000Z,2.40
2018-08-12T20:57:03.622Z,2.43
2018-08-12T20:59:32.859Z,2.20
2018-08-12T21:02:01.189Z,2.20
2018-08-12T21:04:29.559Z,2.07
2018-08-12T21:06:58.060Z,2.13
2018-08-12T21:09:27.772Z,2.23
2018-08-12T21:11:56.753Z,1.97
2018-08-12T21:14:25.163Z,2.23
2018-08-12T21:16:53.898Z,1.97
2018-08-12T21:19:22.404Z,2.00
2018-08-12T21:21:50.961Z,2.23
2018-08-12T21:24:19.294Z,1.93
2018-08-12T21:26:47.802Z,2.03
2018-08-12T21:29:16.218Z,1.90
2018-08-12T21:31:44.583Z,1.70
2018-08-12T21:34:12.915Z,1.40
2018-08-12T21:36:41.430Z,1.90
2018-08-12T21:39:11.720Z,1.70
2018-08-12T21:41:40.377Z,1.83
2018-08-12T21:44:08.790Z,1.47
2018-08-12T21:46:37.338Z,1.50
2018-08-12T21:49:06.299Z,1.83
2018-08-12T21:51:35.298Z,1.53
2018-08-12T21:54:04.054Z,1.47
2018-08-12T21:56:32.608Z,1.60
2018-08-12T21:59:00.972Z,1.60
2018-08-12T22:01:29.408Z,1.60
2018-08-12T22:03:57.760Z,1.70
2018-08-12T22:06:26.215Z,1.77
2018-08-12T22:08:54.630Z,1.70
2018-08-12T22:11:23.668Z,1.73
2018-08-12T22:13:52.073Z,1.60
2018-08-12T22:16:20.463Z,1.70
2018-08-12T22:18:48.971Z,1.63
2018-08-12T22:21:17.401Z,1.30
2018-08-12T22:23:45.755Z,1.30
2018-08-12T22:26:14.750Z,1.47
2018-08-12T22:28:43.551Z,1.20
2018-08-12T22:31:11.976Z,1.17
2018-08-12T22:33:40.397Z,1.37
2018-08-12T22:36:08.838Z,1.33
2018-08-12T22:38:37.260Z,1.30
2018-08-12T22:41:06.069Z,1.30
2018-08-12T22:43:34.434Z,1.30
2018-08-12T22:46:02.827Z,1.30
2018-08-12T22:48:31.234Z,1.40
2018-08-12T22:50:59.600Z,1.60
2018-08-12T22:53:27.918Z,1.30
2018-08-12T22:55:56.345Z,1.50
2018-08-12T22:58:24.684Z,1.30
2018-08-12T23:00:53.155Z,1.30
2018-08-12T23:03:21.936Z,1.40
2018-08-12T23:05:50.393Z,1.60
2018-08-12T23:08:18.780Z,1.40
2018-08-12T23:10:47.200Z,1.30
2018-08-12T23:13:15.616Z,1.20
2018-08-12T23:16:25.432Z,1.57
2018-08-12T23:18:53.913Z,1.70
2018-08-12T23:21:22.842Z,1.53
2018-08-12T23:23:52.446Z,1.37
2018-08-12T23:26:22.839Z,1.57
2018-08-12T23:28:51.301Z,1.70
2018-08-12T23:31:19.689Z,1.60
2018-08-12T23:33:48.115Z,1.63
2018-08-12T23:36:16.494Z,1.50
2018-08-12T23:38:44.827Z,1.60
2018-08-12T23:41:13.627Z,1.60
2018-08-12T23:43:42.043Z,1.73
2018-08-12T23:46:11.448Z,1.67
2018-08-12T23:48:39.836Z,1.37
2018-08-12T23:51:08.563Z,1.20
2018-08-12T23:53:36.955Z,1.50
2018-08-12T23:56:05.718Z,1.50
2018-08-12T23:58:36.093Z,1.80
